Time;durP1;ratioP1;P1;durP2;ratioP2;P2;SDS_P1;SDS_P2;PMS_P1;PMS_P2;Temp;Humidity;BMP_temperature;BMP_pressure;BME280_temperature;BME280_humidity;BME280_pressure;Samples;Min_cycle;Max_cycle;Signal;HPM_P1;HPM_P2
2023/11/01 00:02:03;;;;;;;2.67;1.63;;;;;;;11.17;100.00;99317.66;6209519;28;20390;-73
2023/11/01 00:05:06;;;;;;;2.45;1.33;;;;;;;11.37;100.00;99328.41;6252247;28;20046;-72
2023/11/01 00:08:07;;;;;;;1.75;1.52;;;;;;;11.36;100.00;99327.53;6235051;28;20050;-73
2023/11/01 00:11:08;;;;;;;3.08;1.80;;;;;;;11.26;100.00;99329.19;6238855;28;20044;-73
2023/11/01 00:14:11;;;;;;;3.17;1.52;;;;;;;11.16;100.00;99330.81;6260292;28;20053;-73
2023/11/01 00:17:13;;;;;;;2.30;1.38;;;;;;;10.96;100.00;99330.53;6219112;28;20054;-73
2023/11/01 00:20:16;;;;;;;1.95;1.67;;;;;;;11.12;100.00;99342.44;6220429;28;20046;-73
2023/11/01 00:23:19;;;;;;;1.83;1.60;;;;;;;11.09;100.00;99352.16;6208631;28;20111;-73
2023/11/01 00:26:20;;;;;;;1.73;1.50;;;;;;;11.07;100.00;99353.22;6207065;28;20089;-73
2023/11/01 00:29:21;;;;;;;3.28;1.52;;;;;;;11.00;100.00;99350.25;6223851;28;20209;-73
2023/11/01 00:32:22;;;;;;;3.45;1.80;;;;;;;10.87;100.00;99349.47;6216650;28;20411;-73
2023/11/01 00:35:23;;;;;;;1.85;1.40;;;;;;;10.96;100.00;99354.03;6215307;28;20526;-77
2023/11/01 00:38:24;;;;;;;2.63;1.50;;;;;;;11.05;100.00;99350.72;6217825;28;20065;-77
2023/11/01 00:41:25;;;;;;;1.83;1.27;;;;;;;11.02;100.00;99348.38;6221606;28;20115;-77
2023/11/01 00:44:26;;;;;;;5.55;2.50;;;;;;;11.00;100.00;99355.47;6216451;28;20046;-77
2023/11/01 00:47:26;;;;;;;3.33;1.65;;;;;;;11.08;100.00;99352.31;6216418;28;20490;-77
2023/11/01 00:50:27;;;;;;;2.85;1.33;;;;;;;10.99;100.00;99361.63;6223715;28;20137;-77
2023/11/01 00:53:28;;;;;;;3.38;1.65;;;;;;;11.07;100.00;99354.06;6216462;28;20482;-77
2023/11/01 00:56:29;;;;;;;5.35;1.60;;;;;;;10.79;100.00;99355.28;6326865;28;20120;-77
2023/11/01 00:59:29;;;;;;;1.80;1.55;;;;;;;10.78;100.00;99345.78;6316405;28;20378;-73
2023/11/01 01:02:30;;;;;;;1.60;1.35;;;;;;;10.73;100.00;99349.66;6216175;28;20533;-73
2023/11/01 01:05:31;;;;;;;1.55;1.42;;;;;;;10.83;100.00;99346.28;6223761;28;20129;-73
2023/11/01 01:08:32;;;;;;;1.60;1.50;;;;;;;10.82;100.00;99351.59;6214781;28;20057;-73
2023/11/01 01:11:33;;;;;;;3.08;1.70;;;;;;;10.74;100.00;99359.16;6292529;28;20137;-73
2023/11/01 01:14:34;;;;;;;1.48;1.23;;;;;;;10.71;100.00;99360.22;6193916;28;20046;-73
2023/11/01 01:17:35;;;;;;;1.80;1.50;;;;;;;10.66;100.00;99355.31;6225668;28;20084;-77
2023/11/01 01:20:36;;;;;;;3.13;1.75;;;;;;;10.49;100.00;99358.31;6218920;28;20134;-77
2023/11/01 01:23:39;;;;;;;1.45;1.35;;;;;;;10.49;100.00;99348.72;6219311;28;20045;-73
2023/11/01 01:26:40;;;;;;;3.78;1.70;;;;;;;10.54;100.00;99347.56;6226853;28;20049;-73
2023/11/01 01:29:41;;;;;;;2.05;1.75;;;;;;;10.36;100.00;99344.50;6220031;28;20448;-73
2023/11/01 01:32:42;;;;;;;2.03;1.60;;;;;;;10.41;100.00;99350.22;6218528;28;20106;-73
2023/11/01 01:35:42;;;;;;;2.85;1.75;;;;;;;10.48;100.00;99354.88;6219707;28;20504;-73
2023/11/01 01:38:43;;;;;;;2.50;1.70;;;;;;;10.55;100.00;99352.66;6227040;28;20065;-73
2023/11/01 01:41:46;;;;;;;2.30;1.67;;;;;;;10.57;100.00;99347.34;6218481;28;20057;-73
2023/11/01 01:44:47;;;;;;;1.88;1.52;;;;;;;10.39;100.00;99355.53;6219820;28;20099;-73
2023/11/01 01:47:48;;;;;;;2.80;1.50;;;;;;;10.36;100.00;99349.72;6226313;28;20503;-73
2023/11/01 01:50:49;;;;;;;1.95;1.40;;;;;;;10.32;100.00;99346.50;6219551;28;20454;-77
2023/11/01 01:53:54;;;;;;;7.43;1.60;;;;;;;10.36;100.00;99345.34;6218946;28;20087;-74
2023/11/01 01:56:55;;;;;;;1.77;1.63;;;;;;;10.45;100.00;99352.47;6219611;28;20060;-77
2023/11/01 01:59:58;;;;;;;1.60;1.38;;;;;;;10.52;100.00;99357.25;6225379;28;20050;-77
2023/11/01 02:03:00;;;;;;;1.65;1.55;;;;;;;10.51;100.00;99353.00;6218327;28;20061;-77
2023/11/01 02:06:02;;;;;;;;;;;;;;;10.41;100.00;99358.03;6219794;28;20054;-77
2023/11/01 02:09:05;;;;;;;2.45;1.83;;;;;;;10.56;100.00;99379.56;6267469;28;19965;-77
2023/11/01 02:12:06;;;;;;;2.00;1.70;;;;;;;10.55;100.00;99380.53;6346459;28;20082;-77
2023/11/01 02:15:07;;;;;;;3.35;1.98;;;;;;;10.64;100.00;99385.91;6347215;28;20094;-77
2023/11/01 02:18:09;;;;;;;2.00;1.75;;;;;;;10.54;100.00;99390.13;6346352;28;20203;-77
2023/11/01 02:21:10;;;;;;;1.85;1.65;;;;;;;10.49;100.00;99384.41;6228376;28;20132;-77
2023/11/01 02:24:11;;;;;;;2.20;1.80;;;;;;;10.50;100.00;99383.47;6202716;28;20051;-77
2023/11/01 02:27:14;;;;;;;2.85;1.88;;;;;;;10.53;100.00;99385.84;6192105;28;20175;-77
2023/11/01 02:30:19;;;;;;;3.45;2.50;;;;;;;10.40;100.00;99385.06;6266865;28;20046;-73
2023/11/01 02:33:20;;;;;;;2.65;2.00;;;;;;;10.28;100.00;99386.72;6218479;28;20042;-74
2023/11/01 02:36:21;;;;;;;3.03;1.58;;;;;;;10.19;100.00;99392.56;6224025;28;20429;-77
2023/11/01 02:39:22;;;;;;;1.85;1.70;;;;;;;10.26;100.00;99399.03;6216797;28;20066;-77
2023/11/01 02:42:23;;;;;;;2.78;1.70;;;;;;;10.12;100.00;99407.81;6196775;28;20050;-77
2023/11/01 02:45:26;;;;;;;2.10;1.58;;;;;;;10.22;100.00;99406.25;6228758;28;20460;-77
2023/11/01 02:48:27;;;;;;;2.20;1.65;;;;;;;10.13;100.00;99408.66;6346631;28;20058;-77
2023/11/01 02:51:28;;;;;;;1.95;1.58;;;;;;;10.13;100.00;99412.09;6338227;28;20052;-77
2023/11/01 02:54:29;;;;;;;2.58;1.55;;;;;;;10.20;100.00;99413.34;6344238;28;20245;-77
2023/11/01 02:57:31;;;;;;;2.50;1.80;;;;;;;10.12;100.00;99423.47;6346434;28;20050;-76
2023/11/01 03:00:32;;;;;;;;;;;;;;;10.14;100.00;99426.78;6304617;28;20405;-77
2023/11/01 03:03:33;;;;;;;2.45;1.58;;;;;;;10.06;100.00;99439.53;6218284;28;19922;-76
2023/11/01 03:06:34;;;;;;;1.83;1.50;;;;;;;9.99;100.00;99441.72;6218235;28;20045;-77
2023/11/01 03:09:34;;;;;;;1.90;1.60;;;;;;;9.85;100.00;99441.81;6217922;28;20097;-76
2023/11/01 03:12:40;;;;;;;5.38;1.58;;;;;;;9.85;100.00;99447.03;6329117;28;20051;-77
2023/11/01 03:15:41;;;;;;;3.33;1.73;;;;;;;9.87;100.00;99447.75;6344487;28;20054;-73
2023/11/01 03:18:44;;;;;;;5.82;1.73;;;;;;;9.86;100.00;99439.13;6344396;28;20047;-73
2023/11/01 03:21:45;;;;;;;2.55;1.80;;;;;;;9.87;100.00;99438.16;6337173;28;20043;-73
2023/11/01 03:24:46;;;;;;;2.40;1.90;;;;;;;9.74;100.00;99434.75;6344464;28;20087;-77
2023/11/01 03:27:46;;;;;;;3.85;1.88;;;;;;;9.88;100.00;99437.25;6345375;28;20048;-77
2023/11/01 03:30:47;;;;;;;2.13;1.63;;;;;;;9.81;100.00;99442.97;6344429;28;20066;-77
2023/11/01 03:33:48;;;;;;;4.47;2.30;;;;;;;9.75;100.00;99444.22;6229454;28;20508;-77
2023/11/01 03:36:49;;;;;;;7.30;2.35;;;;;;;9.88;100.00;99454.63;6217298;28;20056;-77
2023/11/01 03:39:50;;;;;;;2.28;1.95;;;;;;;9.89;100.00;99451.09;6217435;28;20062;-76
2023/11/01 03:42:52;;;;;;;2.50;2.00;;;;;;;9.95;100.00;99458.50;6254531;28;20047;-77
2023/11/01 03:45:53;;;;;;;3.35;2.33;;;;;;;9.97;100.00;99461.84;6345050;28;20047;-73
2023/11/01 03:48:54;;;;;;;4.80;2.38;;;;;;;9.97;100.00;99461.00;6342958;28;20503;-73
2023/11/01 03:51:58;;;;;;;4.65;2.53;;;;;;;9.93;100.00;99459.56;6344014;28;20116;-73
2023/11/01 03:54:59;;;;;;;3.30;2.58;;;;;;;9.90;100.00;99468.38;6222137;28;20046;-73
2023/11/01 03:58:02;;;;;;;3.33;2.50;;;;;;;9.88;100.00;99463.31;6217249;28;20064;-73
2023/11/01 04:01:06;;;;;;;3.65;2.40;;;;;;;9.97;100.00;99471.44;6217881;28;20132;-73
2023/11/01 04:04:07;;;;;;;3.90;2.53;;;;;;;9.86;100.00;99472.13;6223853;28;20050;-73
2023/11/01 04:07:08;;;;;;;7.53;2.20;;;;;;;9.94;100.00;99480.28;6215611;28;20102;-73
2023/11/01 04:10:09;;;;;;;2.40;2.20;;;;;;;10.09;100.00;99488.84;6215764;28;20049;-77
2023/11/01 04:13:13;;;;;;;4.28;2.75;;;;;;;10.26;100.00;99491.13;6217135;28;20136;-76
2023/11/01 04:16:17;;;;;;;2.30;2.08;;;;;;;10.05;100.00;99482.19;6224215;28;20049;-77
2023/11/01 04:19:19;;;;;;;5.30;2.67;;;;;;;10.05;100.00;99484.78;6223835;28;20057;-77
2023/11/01 04:22:20;;;;;;;3.00;2.20;;;;;;;9.97;100.00;99497.50;6207500;28;20076;-77
2023/11/01 04:25:21;;;;;;;4.40;2.20;;;;;;;10.21;100.00;99497.59;6204218;28;20050;-77
2023/11/01 04:28:23;;;;;;;7.03;2.50;;;;;;;10.15;100.00;99500.63;6193822;28;20050;-77
2023/11/01 04:31:26;;;;;;;3.22;2.38;;;;;;;10.06;100.00;99504.69;6216434;28;20062;-73
2023/11/01 04:34:27;;;;;;;2.47;2.28;;;;;;;10.11;100.00;99505.22;6215355;28;20046;-73
2023/11/01 04:37:28;;;;;;;3.13;2.35;;;;;;;10.23;100.00;99520.03;6215019;28;20514;-73
2023/11/01 04:40:31;;;;;;;5.53;2.75;;;;;;;10.21;100.00;99516.69;6216204;28;20065;-77
2023/11/01 04:43:32;;;;;;;8.65;2.80;;;;;;;10.28;100.00;99514.50;6293389;28;20129;-73
2023/11/01 04:46:35;;;;;;;4.32;2.60;;;;;;;10.25;100.00;99514.69;6190966;28;20103;-73
2023/11/01 04:49:37;;;;;;;3.72;2.30;;;;;;;10.22;100.00;99528.78;6346284;28;20134;-73
2023/11/01 04:52:38;;;;;;;4.05;2.40;;;;;;;10.18;100.00;99535.13;6349603;28;20055;-77
2023/11/01 04:55:39;;;;;;;3.38;2.45;;;;;;;10.16;100.00;99538.78;6243799;28;20473;-77
2023/11/01 04:58:42;;;;;;;5.03;2.83;;;;;;;10.15;100.00;99532.75;6220700;28;20057;-73
2023/11/01 05:01:47;;;;;;;3.05;2.20;;;;;;;10.24;100.00;99544.31;6220249;28;20046;-73
2023/11/01 05:04:48;;;;;;;3.10;2.28;;;;;;;10.44;100.00;99553.44;6207999;28;20050;-73
2023/11/01 05:07:49;;;;;;;12.45;2.95;;;;;;;10.37;100.00;99560.00;6311339;28;20052;-72
2023/11/01 05:10:50;;;;;;;3.88;2.58;;;;;;;10.37;100.00;99566.03;6349079;28;20547;-73
2023/11/01 05:13:51;;;;;;;5.05;2.97;;;;;;;10.49;100.00;99578.25;6347552;28;20040;-73
2023/11/01 05:16:51;;;;;;;4.32;2.80;;;;;;;10.38;100.00;99585.16;6347675;28;20519;-73
2023/11/01 05:19:53;;;;;;;7.80;2.65;;;;;;;10.64;100.00;99585.97;6269299;28;20496;-77
2023/11/01 05:22:53;;;;;;;4.55;2.63;;;;;;;10.81;100.00;99600.47;6220226;28;20060;-77
2023/11/01 05:25:54;;;;;;;4.05;2.55;;;;;;;10.84;100.00;99608.09;6219097;28;20054;-77
2023/11/01 05:28:56;;;;;;;4.85;2.42;;;;;;;10.85;100.00;99612.34;6218781;28;20061;-77
2023/11/01 05:31:57;;;;;;;5.47;2.85;;;;;;;10.82;100.00;99615.19;6215797;28;20109;-77
2023/11/01 05:35:00;;;;;;;4.32;2.83;;;;;;;11.05;100.00;99624.03;6220474;28;20042;-77
2023/11/01 05:38:05;;;;;;;2.78;2.47;;;;;;;11.08;100.00;99636.88;6221625;28;20065;-77
2023/11/01 05:41:08;;;;;;;8.15;2.33;;;;;;;10.77;100.00;99635.53;6242344;28;20051;-77
2023/11/01 05:44:09;;;;;;;3.08;2.15;;;;;;;10.93;100.00;99640.53;6348636;28;20391;-72
2023/11/01 05:47:10;;;;;;;3.67;2.15;;;;;;;11.05;100.00;99639.69;6349723;28;20054;-77
2023/11/01 05:50:12;;;;;;;4.40;2.67;;;;;;;11.03;100.00;99650.22;6348773;28;20479;-77
2023/11/01 05:53:12;;;;;;;7.70;2.83;;;;;;;11.21;100.00;99657.75;6349663;28;20448;-77
2023/11/01 05:56:15;;;;;;;4.10;2.65;;;;;;;10.89;100.00;99666.88;6349172;27;20062;-74
2023/11/01 05:59:15;;;;;;;;;;;;;;;10.74;100.00;99672.28;6348317;28;20067;-77
2023/11/01 06:02:17;;;;;;;2.35;1.83;;;;;;;10.83;100.00;99663.81;6309543;28;20012;-77
2023/11/01 06:05:21;;;;;;;2.53;2.20;;;;;;;10.87;100.00;99667.88;6212248;28;20391;-77
2023/11/01 06:08:25;;;;;;;5.15;2.00;;;;;;;10.92;100.00;99676.25;6260801;28;20077;-77
2023/11/01 06:11:25;;;;;;;3.95;2.55;;;;;;;10.96;100.00;99687.34;6235592;28;20308;-77
2023/11/01 06:14:26;;;;;;;4.68;2.75;;;;;;;11.10;100.00;99692.44;6224988;28;20132;-77
2023/11/01 06:17:27;;;;;;;2.95;2.10;;;;;;;11.06;100.00;99686.59;6219902;28;20095;-78
2023/11/01 06:20:28;;;;;;;3.75;2.50;;;;;;;11.06;100.00;99706.66;6217908;28;20126;-73
2023/11/01 06:23:28;;;;;;;3.75;2.20;;;;;;;10.75;100.00;99708.72;6221496;28;20053;-72
2023/11/01 06:26:31;;;;;;;7.90;2.53;;;;;;;10.94;100.00;99705.69;6347694;28;20043;-72
2023/11/01 06:29:32;;;;;;;;;;;;;;;11.02;100.00;99713.03;6345863;28;20051;-73
2023/11/01 06:32:33;;;;;;;4.22;2.08;;;;;;;11.02;100.00;99719.06;6346093;28;20314;-74
2023/11/01 06:35:34;;;;;;;3.10;2.33;;;;;;;11.18;100.00;99718.88;6306230;28;20050;-73
2023/11/01 06:38:38;;;;;;;3.92;2.25;;;;;;;11.21;100.00;99723.03;6304423;28;20908;-73
2023/11/01 06:41:38;;;;;;;5.85;1.92;;;;;;;11.27;100.00;99718.22;6263082;28;20342;-77
2023/11/01 06:44:39;;;;;;;2.83;1.80;;;;;;;11.23;100.00;99721.97;6223493;28;20050;-77
2023/11/01 06:47:40;;;;;;;3.30;2.03;;;;;;;11.22;100.00;99728.16;6304992;28;20051;-77
2023/11/01 06:50:41;;;;;;;2.60;1.88;;;;;;;11.39;100.00;99737.44;6319235;28;20144;-77
2023/11/01 06:53:43;;;;;;;3.28;1.95;;;;;;;11.23;100.00;99737.66;6217556;28;20057;-77
2023/11/01 06:56:45;;;;;;;3.43;2.27;;;;;;;11.39;100.00;99740.03;6218485;28;20490;-78
2023/11/01 06:59:45;;;;;;;3.97;2.47;;;;;;;11.63;100.00;99747.09;6295406;28;20295;-77
2023/11/01 07:02:46;;;;;;;3.30;1.80;;;;;;;11.68;100.00;99745.84;6338332;28;20048;-78
2023/11/01 07:05:47;;;;;;;3.67;1.98;;;;;;;11.67;100.00;99751.16;6309052;28;20053;-77
2023/11/01 07:08:48;;;;;;;2.95;1.95;;;;;;;11.84;99.13;99749.97;6217087;28;20464;-77
2023/11/01 07:11:51;;;;;;;3.33;2.00;;;;;;;11.81;99.25;99750.19;6224571;28;20053;-77
2023/11/01 07:14:52;;;;;;;2.92;1.67;;;;;;;11.85;97.68;99757.72;6200042;28;20046;-77
2023/11/01 07:17:53;;;;;;;3.78;2.15;;;;;;;11.93;98.28;99756.38;6192006;28;20078;-77
2023/11/01 07:20:54;;;;;;;3.38;1.85;;;;;;;12.09;97.17;99767.41;6209189;28;20053;-77
2023/11/01 07:24:00;;;;;;;4.35;2.22;;;;;;;12.04;96.37;99759.88;6222476;28;20148;-77
2023/11/01 07:27:01;;;;;;;5.15;1.58;;;;;;;12.04;97.31;99765.09;6217753;28;20060;-77
2023/11/01 07:30:02;;;;;;;2.58;1.77;;;;;;;12.07;96.53;99779.75;6212835;28;20058;-77
2023/11/01 07:33:05;;;;;;;3.90;1.65;;;;;;;12.00;97.06;99766.25;6193256;28;20046;-77
2023/11/01 07:36:08;;;;;;;2.38;1.67;;;;;;;12.08;95.86;99750.03;6288712;28;20079;-77
2023/11/01 07:39:11;;;;;;;2.03;1.77;;;;;;;12.26;94.59;99753.94;6260191;28;20114;-77
2023/11/01 07:42:12;;;;;;;2.97;1.75;;;;;;;12.13;95.63;99744.47;6286218;28;20101;-77
2023/11/01 07:45:13;;;;;;;3.75;2.17;;;;;;;12.46;94.31;99749.88;6293744;28;20042;-77
2023/11/01 07:48:14;;;;;;;4.03;2.75;;;;;;;12.50;93.74;99763.56;6249191;28;20384;-78
2023/11/01 07:51:17;;;;;;;4.15;2.00;;;;;;;12.48;93.35;99774.13;6273857;28;20049;-78
2023/11/01 07:54:19;;;;;;;5.07;2.00;;;;;;;13.01;93.56;99772.88;6287336;28;20044;-79
2023/11/01 07:57:22;;;;;;;3.00;2.13;;;;;;;13.29;91.44;99772.47;6344200;28;20044;-79
2023/11/01 08:00:25;;;;;;;4.22;2.03;;;;;;;13.52;89.25;99771.66;6332269;28;20074;-78
2023/11/01 08:03:26;;;;;;;2.55;1.50;;;;;;;13.29;90.55;99780.31;6200312;28;20059;-78
2023/11/01 08:06:27;;;;;;;5.05;1.58;;;;;;;13.49;87.52;99780.59;6274959;28;20147;-78
2023/11/01 08:09:30;;;;;;;2.70;1.40;;;;;;;13.68;87.72;99785.22;6344555;28;20047;-78
2023/11/01 08:12:31;;;;;;;3.58;1.80;;;;;;;13.97;86.92;99784.72;6283706;28;20418;-78
2023/11/01 08:15:33;;;;;;;3.22;1.45;;;;;;;13.99;85.33;99790.69;6249706;28;20132;-78
2023/11/01 08:18:36;;;;;;;6.18;1.45;;;;;;;13.90;86.12;99800.94;6216502;28;20054;-78
2023/11/01 08:21:37;;;;;;;7.10;1.92;;;;;;;13.89;85.50;99794.00;6222629;28;20054;-78
2023/11/01 08:24:43;;;;;;;5.53;1.60;;;;;;;14.07;84.45;99802.22;6211282;28;20053;-78
2023/11/01 08:27:44;;;;;;;1.40;1.30;;;;;;;14.01;83.12;99800.09;6280323;28;20409;-77
2023/11/01 08:30:45;;;;;;;7.60;1.50;;;;;;;14.27;84.26;99802.44;6220273;28;20049;-73
2023/11/01 08:33:48;;;;;;;3.25;1.55;;;;;;;14.22;83.52;99808.03;6227962;28;20471;-77
2023/11/01 08:36:49;;;;;;;2.78;1.60;;;;;;;14.13;82.54;99808.78;6220427;28;20054;-73
2023/11/01 08:39:51;;;;;;;2.25;1.40;;;;;;;14.36;81.74;99808.72;6219669;28;20054;-74
2023/11/01 08:42:52;;;;;;;6.25;1.38;;;;;;;14.17;82.49;99817.25;6225929;28;20050;-73
2023/11/01 08:45:53;;;;;;;2.45;1.50;;;;;;;14.67;80.69;99812.34;6260145;28;20501;-73
2023/11/01 08:48:53;;;;;;;1.25;1.10;;;;;;;15.02;79.66;99816.47;6349360;27;20055;-74
2023/11/01 08:51:55;;;;;;;2.15;1.38;;;;;;;15.24;77.30;99821.59;6341526;28;20050;-73
2023/11/01 08:54:57;;;;;;;6.27;1.47;;;;;;;15.30;78.21;99820.25;6319243;28;20079;-78
2023/11/01 08:58:01;;;;;;;;;;;;;;;15.46;76.37;99817.16;6317884;28;20291;-73
2023/11/01 09:01:02;;;;;;;1.58;1.20;;;;;;;15.76;76.44;99815.53;6231135;28;19921;-73
2023/11/01 09:04:02;;;;;;;1.38;1.20;;;;;;;15.63;75.86;99821.81;6272116;28;20050;-74
2023/11/01 09:07:03;;;;;;;2.38;1.52;;;;;;;15.30;78.19;99826.34;6260326;28;20398;-73
2023/11/01 09:10:07;;;;;;;1.80;1.20;;;;;;;15.67;76.87;99825.03;6226422;28;20060;-76
2023/11/01 09:13:08;;;;;;;3.05;1.33;;;;;;;15.54;76.20;99827.00;6237920;28;20052;-76
2023/11/01 09:16:09;;;;;;;5.13;1.70;;;;;;;15.83;77.23;99832.44;6290077;28;20048;-76
2023/11/01 09:19:10;;;;;;;2.05;1.20;;;;;;;15.80;75.17;99827.44;6338599;28;20040;-76
2023/11/01 09:22:15;;;;;;;4.28;1.40;;;;;;;16.04;74.83;99835.84;6321903;28;20406;-76
2023/11/01 09:25:17;;;;;;;2.00;1.52;;;;;;;15.91;75.12;99838.69;6219462;28;20246;-77
2023/11/01 09:28:20;;;;;;;1.67;1.40;;;;;;;16.23;74.32;99836.88;6283602;28;20052;-77
2023/11/01 09:31:22;;;;;;;2.17;1.42;;;;;;;16.18;74.63;99839.06;6218875;28;20054;-73
2023/11/01 09:34:25;;;;;;;8.32;5.07;;;;;;;15.98;74.35;99836.38;6217429;28;20050;-74
2023/11/01 09:37:26;;;;;;;2.35;1.40;;;;;;;15.91;73.88;99833.41;6218830;28;20152;-74
2023/11/01 09:40:29;;;;;;;3.00;1.60;;;;;;;16.18;73.50;99826.72;6218428;28;20057;-73
2023/11/01 09:43:33;;;;;;;1.70;1.38;;;;;;;15.95;74.33;99822.66;6244476;28;20051;-74
2023/11/01 09:46:37;;;;;;;2.53;1.60;;;;;;;16.31;73.80;99821.22;6302691;28;20092;-77
2023/11/01 09:49:38;;;;;;;1.80;1.27;;;;;;;16.62;74.44;99816.66;6240211;28;20046;-77
2023/11/01 09:52:40;;;;;;;3.17;1.90;;;;;;;16.89;74.81;99823.06;6326443;28;20054;-74
2023/11/01 09:55:41;;;;;;;5.13;2.90;;;;;;;16.77;71.15;99819.72;6218641;28;20106;-73
2023/11/01 09:58:42;;;;;;;6.75;1.88;;;;;;;16.79;71.98;99825.69;6221826;28;20045;-77
2023/11/01 10:01:44;;;;;;;3.28;1.60;;;;;;;16.64;72.75;99816.53;6271781;28;20056;-76
2023/11/01 10:04:45;;;;;;;2.07;1.67;;;;;;;16.92;73.90;99820.16;6219850;28;20061;-74
2023/11/01 10:07:45;;;;;;;3.25;2.13;;;;;;;16.90;71.40;99814.19;6218194;28;21047;-73
2023/11/01 10:10:46;;;;;;;3.38;1.60;;;;;;;17.21;70.15;99803.47;6208649;28;20064;-73
2023/11/01 10:13:47;;;;;;;3.28;2.17;;;;;;;16.65;68.15;99813.75;6210976;28;20140;-74
2023/11/01 10:16:48;;;;;;;1.98;1.60;;;;;;;16.85;67.70;99806.72;6194795;28;20054;-73
2023/11/01 10:19:49;;;;;;;2.17;1.48;;;;;;;17.18;69.34;99809.03;6296955;28;20536;-73
2023/11/01 10:22:50;;;;;;;3.65;1.55;;;;;;;17.33;66.58;99812.88;6194273;28;20165;-73
2023/11/01 10:25:51;;;;;;;8.07;3.50;;;;;;;17.18;65.88;99807.22;6193215;28;20077;-73
2023/11/01 10:28:52;;;;;;;8.80;3.58;;;;;;;17.19;66.04;99802.78;6192965;28;20077;-74
2023/11/01 10:31:58;;;;;;;2.67;2.05;;;;;;;17.20;65.86;99797.38;6194524;28;20486;-73
2023/11/01 10:35:12;;;;;;;2.97;1.80;;;;;;;17.27;67.58;99800.25;6192884;28;20563;-73
2023/11/01 10:38:13;;;;;;;1.73;1.30;;;;;;;17.31;64.88;99805.09;6193990;28;20051;-73
2023/11/01 10:41:18;;;;;;;3.05;1.25;;;;;;;16.84;65.34;99801.56;6194103;28;20418;-73
2023/11/01 10:44:20;;;;;;;1.95;1.15;;;;;;;16.83;66.39;99805.19;6192849;28;20046;-73
2023/11/01 10:47:21;;;;;;;;;;;;;;;16.68;64.90;99804.75;6193626;28;20088;-74
2023/11/01 10:50:22;;;;;;;1.55;1.00;;;;;;;16.14;68.57;99799.00;6193002;28;19930;-73
2023/11/01 10:53:24;;;;;;;3.88;1.30;;;;;;;15.86;69.54;99803.25;6193973;28;20080;-73
2023/11/01 10:56:26;;;;;;;1.30;1.20;;;;;;;15.90;70.41;99796.75;6294919;28;20069;-73
2023/11/01 11:00:24;;;;;;;2.60;1.67;;;;;;;17.02;67.80;99788.53;6192782;28;20058;-76
2023/11/01 11:03:40;;;;;;;1.13;1.02;;;;;;;16.86;66.26;99784.69;6257064;28;20096;-76
2023/11/01 11:06:57;;;;;;;2.35;1.45;;;;;;;17.61;64.47;99786.56;6192651;28;20107;-76
2023/11/01 11:10:19;;;;;;;2.22;1.60;;;;;;;16.65;64.43;99786.59;6194268;28;20060;-76
2023/11/01 11:13:20;;;;;;;1.30;1.15;;;;;;;16.17;66.57;99796.13;6193467;28;20134;-76
2023/11/01 11:16:24;;;;;;;1.85;1.30;;;;;;;16.16;68.46;99796.25;6193688;28;20503;-74
2023/11/01 11:19:27;;;;;;;1.83;1.30;;;;;;;16.81;66.07;99794.78;6193733;28;20058;-73
2023/11/01 11:22:57;;;;;;;1.70;1.27;;;;;;;17.35;65.56;99802.19;6193256;28;20054;-73
2023/11/01 11:26:00;;;;;;;1.85;1.02;;;;;;;17.60;63.05;99800.69;6193270;28;20050;-76
2023/11/01 11:29:00;;;;;;;3.03;1.10;;;;;;;17.31;61.71;99799.00;6193297;28;20050;-76
2023/11/01 11:32:06;;;;;;;1.80;1.30;;;;;;;17.71;63.04;99795.25;6193455;28;20307;-77
2023/11/01 11:35:22;;;;;;;3.75;1.40;;;;;;;17.66;62.23;99802.75;6193104;28;20498;-76
2023/11/01 11:38:36;;;;;;;2.35;1.27;;;;;;;17.85;62.71;99801.88;6193182;28;20145;-76
2023/11/01 11:41:36;;;;;;;2.38;1.40;;;;;;;17.12;63.69;99791.97;6192978;28;20169;-76
2023/11/01 11:45:01;;;;;;;1.83;1.40;;;;;;;17.33;64.56;99797.88;6192049;28;20050;-73
2023/11/01 11:48:39;;;;;;;1.30;1.10;;;;;;;17.06;66.17;99797.81;6193107;28;20058;-77
2023/11/01 11:51:49;;;;;;;3.08;1.20;;;;;;;16.78;65.97;99802.09;6191824;28;20054;-73
2023/11/01 11:54:50;;;;;;;2.42;1.25;;;;;;;17.10;66.06;99801.81;6192695;28;20047;-73
2023/11/01 11:57:51;;;;;;;1.58;1.27;;;;;;;16.30;66.87;99794.03;6191634;28;20540;-73
2023/11/01 12:00:54;;;;;;;1.48;1.25;;;;;;;16.60;67.61;99792.28;6192955;28;20051;-73
2023/11/01 12:04:01;;;;;;;1.55;1.27;;;;;;;16.74;66.99;99791.03;6192749;28;20554;-73
2023/11/01 12:07:02;;;;;;;2.40;1.42;;;;;;;16.73;66.98;99784.91;6192729;28;20057;-72
2023/11/01 12:10:04;;;;;;;2.93;1.47;;;;;;;17.10;66.53;99789.47;6191411;28;20484;-76
2023/11/01 12:13:05;;;;;;;3.35;1.35;;;;;;;16.87;66.64;99782.88;6192563;28;20050;-76
2023/11/01 12:16:06;;;;;;;2.45;1.38;;;;;;;17.32;65.72;99783.03;6191412;28;20057;-76
2023/11/01 12:19:20;;;;;;;1.40;1.02;;;;;;;17.22;64.37;99779.59;6191214;28;20421;-76
2023/11/01 12:22:21;;;;;;;1.40;1.00;;;;;;;16.81;63.88;99771.06;6192655;28;20107;-76
2023/11/01 12:25:23;;;;;;;1.27;1.15;;;;;;;16.91;64.81;99771.06;6192392;28;20153;-76
2023/11/01 12:28:24;;;;;;;3.90;1.65;;;;;;;16.69;65.40;99775.63;6191195;28;20513;-76
2023/11/01 12:31:24;;;;;;;2.83;1.10;;;;;;;17.02;64.23;99775.34;6192216;28;20050;-76
2023/11/01 12:34:26;;;;;;;2.78;0.80;;;;;;;17.12;63.05;99774.34;6192318;28;20051;-76
2023/11/01 12:37:31;;;;;;;3.33;1.33;;;;;;;17.20;62.32;99772.81;6192376;28;20069;-76
2023/11/01 12:40:32;;;;;;;1.80;0.88;;;;;;;17.32;62.03;99776.94;6190732;28;20502;-76
2023/11/01 12:43:36;;;;;;;1.27;1.00;;;;;;;17.21;61.98;99779.72;6208879;28;20057;-76
2023/11/01 12:46:37;;;;;;;2.28;0.80;;;;;;;16.91;60.73;99771.06;6210533;28;20451;-76
2023/11/01 12:49:41;;;;;;;1.00;0.63;;;;;;;16.91;60.65;99766.63;6203287;28;20138;-75
2023/11/01 12:52:42;;;;;;;1.67;0.80;;;;;;;17.69;61.12;99773.47;6208175;28;20050;-76
2023/11/01 12:55:42;;;;;;;3.45;0.82;;;;;;;17.64;57.45;99760.69;6215164;28;20524;-76
2023/11/01 12:58:44;;;;;;;1.30;0.63;;;;;;;17.86;57.57;99761.31;6205698;28;20394;-76
2023/11/01 13:01:48;;;;;;;2.23;0.60;;;;;;;18.01;56.40;99765.09;6196004;28;20053;-76
2023/11/01 13:04:49;;;;;;;1.88;0.80;;;;;;;17.74;55.54;99760.66;6215252;28;20057;-76
2023/11/01 13:07:51;;;;;;;1.42;0.50;;;;;;;17.37;56.21;99758.88;6214565;28;20046;-76
2023/11/01 13:10:53;;;;;;;1.23;0.70;;;;;;;17.70;57.00;99757.47;6203250;28;20054;-76
2023/11/01 13:13:57;;;;;;;2.42;0.80;;;;;;;17.84;56.62;99760.63;6300724;28;20109;-73
2023/11/01 13:16:57;;;;;;;2.35;0.70;;;;;;;17.52;55.51;99757.44;6215029;28;20060;-73
2023/11/01 13:20:00;;;;;;;1.33;0.63;;;;;;;17.38;54.35;99765.81;6220216;28;20058;-76
2023/11/01 13:23:01;;;;;;;1.90;0.82;;;;;;;17.41;54.74;99754.97;6225880;28;20046;-76
2023/11/01 13:26:02;;;;;;;0.90;0.70;;;;;;;17.50;55.39;99764.66;6211620;28;20513;-76
2023/11/01 13:29:03;;;;;;;1.17;0.60;;;;;;;17.25;55.65;99760.00;6194859;28;20060;-75
2023/11/01 13:32:04;;;;;;;0.77;0.40;;;;;;;17.32;54.47;99769.84;6203816;28;20058;-75
2023/11/01 13:35:06;;;;;;;0.63;0.52;;;;;;;17.23;54.21;99767.25;6223242;28;20046;-76
2023/11/01 13:38:07;;;;;;;2.72;0.50;;;;;;;17.18;54.70;99765.03;6218676;28;20174;-73
2023/11/01 13:41:07;;;;;;;5.78;1.00;;;;;;;17.26;56.71;99761.69;6217770;28;21033;-76
2023/11/01 13:44:11;;;;;;;2.78;1.02;;;;;;;17.19;56.23;99757.94;6210164;28;20564;-76
2023/11/01 13:47:12;;;;;;;2.80;0.50;;;;;;;17.09;56.62;99758.81;6204470;28;20050;-76
2023/11/01 13:50:13;;;;;;;2.38;1.23;;;;;;;16.72;57.88;99751.66;6215307;28;20148;-76
2023/11/01 13:53:15;;;;;;;2.97;0.77;;;;;;;16.72;58.31;99756.91;6219270;28;20050;-76
2023/11/01 13:56:15;;;;;;;1.23;0.73;;;;;;;16.61;58.34;99751.78;6228745;28;20049;-76
2023/11/01 13:59:18;;;;;;;0.52;0.45;;;;;;;16.67;59.97;99753.03;6219615;28;20384;-76
2023/11/01 14:02:19;;;;;;;1.00;0.65;;;;;;;16.63;58.98;99749.84;6218518;28;20375;-76
2023/11/01 14:05:20;;;;;;;1.05;0.50;;;;;;;16.67;59.48;99753.03;6244020;28;20482;-76
2023/11/01 14:08:21;;;;;;;1.02;0.77;;;;;;;16.63;60.42;99749.84;6215400;28;20107;-76
2023/11/01 14:11:23;;;;;;;2.85;1.05;;;;;;;16.63;61.36;99747.19;6218543;28;20042;-76
2023/11/01 14:14:25;;;;;;;2.67;1.02;;;;;;;16.46;62.38;99745.28;6267264;28;20051;-77
2023/11/01 14:17:26;;;;;;;;;;;;;;;16.14;62.55;99753.44;6339794;28;20054;-76